Time;durP1;ratioP1;P1;durP2;ratioP2;P2;SDS_P1;SDS_P2;PMS_P1;PMS_P2;Temp;Humidity;BMP_temperature;BMP_pressure;BME280_temperature;BME280_humidity;BME280_pressure;Samples;Min_cycle;Max_cycle;Signal;HPM_P1;HPM_P2
2022/09/06 00:01:41;;;;;;;;;;;20.80;77.00;;;;;;5050348;28;19924;-53
2022/09/06 00:04:07;;;;;;;;;;;20.80;77.30;;;;;;5049188;28;19916;-54
2022/09/06 00:06:32;;;;;;;;;;;20.70;77.20;;;;;;5031039;28;20319;-54
2022/09/06 00:08:58;;;;;;;;;;;20.70;77.30;;;;;;5030831;28;19932;-56
2022/09/06 00:11:24;;;;;;;;;;;20.60;77.50;;;;;;5030828;28;19986;-54
2022/09/06 00:13:49;;;;;;;;;;;20.60;77.60;;;;;;5030482;28;19940;-55
2022/09/06 00:16:16;;;;;;;;;;;20.60;77.70;;;;;;5031298;28;19917;-54
2022/09/06 00:18:42;;;;;;;;;;;20.60;77.70;;;;;;5030761;28;20402;-54
2022/09/06 00:21:18;;;;;;;;;;;20.60;77.90;;;;;;5030736;28;19921;-54
2022/09/06 00:23:43;;;;;;;;;;;20.50;78.00;;;;;;5030506;28;19917;-57
2022/09/06 00:26:09;;;;;;;;;;;20.60;78.10;;;;;;5031639;28;19971;-56
2022/09/06 00:28:34;;;;;;;;;;;20.50;78.10;;;;;;5044953;28;20307;-56
2022/09/06 00:31:07;;;;;;;;;;;20.50;78.20;;;;;;5040221;28;19917;-54
2022/09/06 00:33:32;;;;;;;;;;;20.50;78.40;;;;;;5046731;28;19932;-54
2022/09/06 00:35:59;;;;;;;;;;;20.50;78.30;;;;;;5033305;28;19920;-56
2022/09/06 00:38:24;;;;;;;;;;;20.40;78.30;;;;;;5040424;28;20027;-54
2022/09/06 00:40:49;;;;;;;;;;;20.30;78.40;;;;;;5036748;28;20043;-54
2022/09/06 00:43:15;;;;;;;;;;;20.30;78.60;;;;;;5031107;28;19924;-56
2022/09/06 00:45:40;;;;;;;;;;;20.20;78.90;;;;;;5050971;28;19916;-54
2022/09/06 00:48:06;;;;;;;;;;;20.10;79.00;;;;;;5039588;28;19924;-56
2022/09/06 00:50:31;;;;;;;;;;;20.10;79.30;;;;;;5030493;28;19917;-55
2022/09/06 00:52:57;;;;;;;;;;;20.00;79.50;;;;;;5030071;28;19921;-56
2022/09/06 00:55:25;;;;;;;;;;;19.90;79.60;;;;;;5049843;28;20166;-55
2022/09/06 00:57:50;;;;;;;;;;;19.90;80.00;;;;;;5048069;28;19932;-54
2022/09/06 01:00:17;;;;;;;;;;;19.90;80.30;;;;;;5046960;28;19917;-57
2022/09/06 01:09:26;;;;;;;;;;;19.70;80.90;;;;;;5030279;28;20294;-55
2022/09/06 01:12:14;;;;;;;;;;;19.70;81.30;;;;;;5030391;28;20003;-57
2022/09/06 01:14:55;;;;;;;;;;;19.70;81.30;;;;;;5032700;28;20018;-55
2022/09/06 01:24:24;;;;;;;;;;;19.80;81.40;;;;;;5035342;28;19924;-54
2022/09/06 01:27:01;;;;;;;;;;;19.90;81.60;;;;;;5051367;28;19916;-55
2022/09/06 01:29:38;;;;;;;;;;;19.80;81.70;;;;;;5040439;28;20007;-57
2022/09/06 01:32:08;;;;;;;;;;;19.80;81.70;;;;;;5044979;28;20383;-57
2022/09/06 01:34:40;;;;;;;;;;;19.90;82.40;;;;;;5047984;28;20302;-54
2022/09/06 01:37:14;;;;;;;;;;;19.80;82.40;;;;;;5052341;28;19956;-56
2022/09/06 01:39:40;;;;;;;;;;;19.70;82.20;;;;;;5045587;28;19975;-54
2022/09/06 01:42:06;;;;;;;;;;;19.70;82.40;;;;;;5052174;28;19916;-56
2022/09/06 01:44:31;;;;;;;;;;;19.70;82.40;;;;;;5052053;28;19917;-54
2022/09/06 01:46:57;;;;;;;;;;;19.70;82.30;;;;;;5051749;28;20006;-57
2022/09/06 01:49:31;;;;;;;;;;;19.70;82.80;;;;;;5047382;28;20474;-54
2022/09/06 01:52:14;;;;;;;;;;;19.70;83.00;;;;;;5042714;28;19916;-54
2022/09/06 01:54:40;;;;;;;;;;;19.70;83.20;;;;;;5049813;28;19924;-54
2022/09/06 01:57:11;;;;;;;;;;;19.70;83.40;;;;;;5048629;28;19974;-57
2022/09/06 01:59:36;;;;;;;;;;;19.70;83.80;;;;;;5037360;28;19917;-56
2022/09/06 02:02:05;;;;;;;;;;;19.70;84.00;;;;;;5048900;28;20023;-54
2022/09/06 02:04:32;;;;;;;;;;;19.70;84.10;;;;;;5050481;28;19917;-55
2022/09/06 02:07:00;;;;;;;;;;;19.70;84.00;;;;;;5038840;28;19970;-57
2022/09/06 02:09:28;;;;;;;;;;;19.70;84.00;;;;;;5042342;28;20005;-54
2022/09/06 02:11:56;;;;;;;;;;;19.70;83.90;;;;;;5052391;28;20424;-56
2022/09/06 02:14:34;;;;;;;;;;;19.70;83.80;;;;;;5041137;28;20151;-56
2022/09/06 02:16:59;;;;;;;;;;;19.70;83.60;;;;;;5033736;28;20016;-55
2022/09/06 02:19:31;;;;;;;;;;;19.70;83.80;;;;;;5042714;28;20485;-55
2022/09/06 02:21:57;;;;;;;;;;;19.70;84.10;;;;;;5043754;28;19917;-56
2022/09/06 02:24:25;;;;;;;;;;;19.70;84.40;;;;;;5042076;28;20401;-54
2022/09/06 02:26:51;;;;;;;;;;;19.70;83.90;;;;;;5049965;28;19916;-54
2022/09/06 02:29:17;;;;;;;;;;;19.60;84.70;;;;;;5047331;28;19924;-55
2022/09/06 02:32:05;;;;;;;;;;;19.60;84.60;;;;;;5059981;28;19924;-57
2022/09/06 02:34:31;;;;;;;;;;;19.60;85.00;;;;;;5032402;28;19917;-55
2022/09/06 02:36:56;;;;;;;;;;;19.50;84.60;;;;;;5032826;28;19975;-57
2022/09/06 02:39:22;;;;;;;;;;;19.60;84.70;;;;;;5033048;28;19952;-54
2022/09/06 02:41:48;;;;;;;;;;;19.60;84.40;;;;;;5034251;28;19921;-54
2022/09/06 02:44:13;;;;;;;;;;;19.60;84.20;;;;;;5050890;28;20011;-53
2022/09/06 02:46:39;;;;;;;;;;;19.60;84.30;;;;;;5052765;28;19947;-56
2022/09/06 02:49:04;;;;;;;;;;;19.60;84.70;;;;;;5047068;28;20359;-54
2022/09/06 02:51:34;;;;;;;;;;;19.60;84.90;;;;;;5032468;28;20395;-54
2022/09/06 02:54:00;;;;;;;;;;;19.60;84.60;;;;;;5032702;28;19917;-54
2022/09/06 02:56:25;;;;;;;;;;;19.60;84.90;;;;;;5031172;28;19916;-54
2022/09/06 02:58:51;;;;;;;;;;;19.60;84.40;;;;;;5032982;28;20016;-58
2022/09/06 03:01:16;;;;;;;;;;;19.60;84.50;;;;;;5035653;28;19925;-54
2022/09/06 03:03:42;;;;;;;;;;;19.60;84.80;;;;;;5050590;28;19917;-54
2022/09/06 03:06:07;;;;;;;;;;;19.60;84.80;;;;;;5044830;28;19970;-56
2022/09/06 03:08:35;;;;;;;;;;;19.60;85.00;;;;;;5037116;28;19924;-54
2022/09/06 03:11:01;;;;;;;;;;;19.60;85.70;;;;;;5050202;28;19917;-54
2022/09/06 03:13:26;;;;;;;;;;;19.50;85.60;;;;;;5047330;28;19928;-54
2022/09/06 03:15:54;;;;;;;;;;;19.40;85.70;;;;;;5047464;28;19916;-56
2022/09/06 03:18:19;;;;;;;;;;;19.30;85.90;;;;;;5050915;28;20117;-56
2022/09/06 03:20:45;;;;;;;;;;;19.20;86.70;;;;;;5041084;28;19917;-53
2022/09/06 03:23:10;;;;;;;;;;;19.10;86.50;;;;;;5032441;28;19924;-56
2022/09/06 03:25:36;;;;;;;;;;;19.10;86.80;;;;;;5041213;28;19916;-56
2022/09/06 03:28:01;;;;;;;;;;;19.00;86.60;;;;;;5038444;28;19921;-56
2022/09/06 03:30:27;;;;;;;;;;;18.90;87.60;;;;;;5045602;28;20329;-54
2022/09/06 03:32:52;;;;;;;;;;;18.90;87.10;;;;;;5036559;28;19917;-56
2022/09/06 03:35:18;;;;;;;;;;;18.80;87.20;;;;;;5044419;28;19917;-55
2022/09/06 03:37:43;;;;;;;;;;;18.80;87.60;;;;;;5044398;28;19940;-54
2022/09/06 03:40:10;;;;;;;;;;;18.80;87.80;;;;;;5034266;28;19940;-55
2022/09/06 03:42:35;;;;;;;;;;;18.80;88.10;;;;;;5032358;28;19991;-57
2022/09/06 03:45:01;;;;;;;;;;;18.80;88.30;;;;;;5043097;28;19939;-54
2022/09/06 03:47:26;;;;;;;;;;;18.80;88.50;;;;;;5034159;28;19948;-57
2022/09/06 03:49:52;;;;;;;;;;;18.80;88.80;;;;;;5035738;28;19924;-54
2022/09/06 03:52:17;;;;;;;;;;;18.80;88.80;;;;;;5048061;28;20406;-54
2022/09/06 03:54:43;;;;;;;;;;;18.80;88.80;;;;;;5045565;28;20022;-55
2022/09/06 03:57:08;;;;;;;;;;;18.80;89.00;;;;;;5034902;28;20025;-55
2022/09/06 03:59:34;;;;;;;;;;;18.70;89.00;;;;;;5035810;28;20237;-56
2022/09/06 04:02:00;;;;;;;;;;;18.70;89.40;;;;;;5032330;28;20406;-54
2022/09/06 04:04:25;;;;;;;;;;;18.60;89.60;;;;;;5030234;28;19917;-53
2022/09/06 04:06:51;;;;;;;;;;;18.70;89.70;;;;;;5046442;28;19964;-56
2022/09/06 04:09:16;;;;;;;;;;;18.70;89.90;;;;;;5035641;28;19916;-55
2022/09/06 04:11:42;;;;;;;;;;;18.70;90.00;;;;;;5040578;28;19917;-54
2022/09/06 04:14:07;;;;;;;;;;;18.60;90.10;;;;;;5031527;28;19928;-57
2022/09/06 04:16:33;;;;;;;;;;;18.60;90.10;;;;;;5032647;28;19917;-54
2022/09/06 04:19:00;;;;;;;;;;;18.60;90.00;;;;;;5033391;28;19928;-54
2022/09/06 04:21:26;;;;;;;;;;;18.70;89.80;;;;;;5048316;28;19916;-56
2022/09/06 04:23:51;;;;;;;;;;;18.80;90.00;;;;;;5036940;28;19916;-54
2022/09/06 04:26:17;;;;;;;;;;;18.80;89.90;;;;;;5050196;28;19917;-55
2022/09/06 04:28:42;;;;;;;;;;;18.80;89.80;;;;;;5048033;28;19916;-56
2022/09/06 04:31:08;;;;;;;;;;;18.80;89.90;;;;;;5047959;28;19920;-56
2022/09/06 04:33:35;;;;;;;;;;;18.80;89.90;;;;;;5040372;28;19917;-56
2022/09/06 04:36:01;;;;;;;;;;;18.90;89.90;;;;;;5030490;28;19917;-57
2022/09/06 04:38:28;;;;;;;;;;;18.90;90.00;;;;;;5030627;28;19921;-56
2022/09/06 04:40:56;;;;;;;;;;;19.00;90.00;;;;;;5050030;28;19920;-54
2022/09/06 04:43:21;;;;;;;;;;;19.00;89.80;;;;;;5033246;28;20016;-54
2022/09/06 04:45:47;;;;;;;;;;;19.00;89.80;;;;;;5030469;28;20012;-55
2022/09/06 04:48:13;;;;;;;;;;;19.00;90.00;;;;;;5031335;28;19917;-56
2022/09/06 04:50:39;;;;;;;;;;;18.90;90.00;;;;;;5034670;28;19921;-54
2022/09/06 04:53:05;;;;;;;;;;;18.90;90.10;;;;;;5042067;28;19970;-56
2022/09/06 04:55:30;;;;;;;;;;;18.90;90.50;;;;;;5053781;28;19920;-56
2022/09/06 04:57:59;;;;;;;;;;;18.90;90.40;;;;;;5054220;28;20189;-55
2022/09/06 05:00:25;;;;;;;;;;;18.90;90.50;;;;;;5054463;28;20356;-54
2022/09/06 05:02:51;;;;;;;;;;;18.90;90.70;;;;;;5048764;28;19958;-57
2022/09/06 05:05:16;;;;;;;;;;;18.90;91.00;;;;;;5046829;28;19999;-57
2022/09/06 05:07:42;;;;;;;;;;;18.90;91.50;;;;;;5051758;28;20411;-54
2022/09/06 05:10:08;;;;;;;;;;;18.90;91.80;;;;;;5037245;28;19929;-54
2022/09/06 05:12:33;;;;;;;;;;;18.90;91.80;;;;;;5053844;28;20306;-56
2022/09/06 05:14:59;;;;;;;;;;;18.90;91.40;;;;;;5046836;28;20366;-56
2022/09/06 05:17:24;;;;;;;;;;;18.80;91.80;;;;;;5051068;28;19927;-54
2022/09/06 05:19:50;;;;;;;;;;;18.80;91.70;;;;;;5045494;28;19924;-54
2022/09/06 05:22:16;;;;;;;;;;;18.70;92.10;;;;;;5035920;28;20426;-57
2022/09/06 05:24:41;;;;;;;;;;;18.70;92.50;;;;;;5043052;28;19927;-56
2022/09/06 05:27:06;;;;;;;;;;;18.70;92.80;;;;;;5048811;28;20406;-55
2022/09/06 05:29:32;;;;;;;;;;;18.70;93.90;;;;;;5043313;28;20410;-55
2022/09/06 05:31:58;;;;;;;;;;;18.60;94.20;;;;;;5053683;28;19921;-57
2022/09/06 05:34:23;;;;;;;;;;;18.60;94.60;;;;;;5043101;28;19917;-57
2022/09/06 05:36:49;;;;;;;;;;;18.60;95.10;;;;;;5048914;28;19928;-55
2022/09/06 05:39:14;;;;;;;;;;;18.60;95.10;;;;;;5071414;28;20620;-54
2022/09/06 05:41:40;;;;;;;;;;;18.50;95.20;;;;;;5045977;28;20003;-56
2022/09/06 05:44:05;;;;;;;;;;;18.50;95.20;;;;;;5040262;28;19916;-55
2022/09/06 05:46:31;;;;;;;;;;;18.50;95.60;;;;;;5045779;28;20401;-54
2022/09/06 05:49:00;;;;;;;;;;;18.50;96.00;;;;;;5043454;28;19969;-56
2022/09/06 05:51:25;;;;;;;;;;;18.50;96.00;;;;;;5071114;28;20347;-55
2022/09/06 05:53:50;;;;;;;;;;;18.50;96.60;;;;;;5052295;28;19999;-54
2022/09/06 05:56:16;;;;;;;;;;;18.50;96.80;;;;;;5052116;28;19970;-56
2022/09/06 05:58:42;;;;;;;;;;;18.50;97.00;;;;;;5053094;28;19921;-54
2022/09/06 06:01:15;;;;;;;;;;;18.50;97.00;;;;;;5053703;28;20386;-54
2022/09/06 06:03:42;;;;;;;;;;;18.60;97.30;;;;;;5052789;28;19928;-57
2022/09/06 06:06:07;;;;;;;;;;;18.60;97.40;;;;;;5045871;28;20039;-54
2022/09/06 06:08:33;;;;;;;;;;;18.50;97.30;;;;;;5052057;28;20302;-57
2022/09/06 06:10:59;;;;;;;;;;;18.50;97.70;;;;;;5073309;28;19971;-58
2022/09/06 06:13:25;;;;;;;;;;;18.40;97.90;;;;;;5060656;28;20390;-56
2022/09/06 06:15:51;;;;;;;;;;;18.40;98.30;;;;;;5033765;28;19924;-56
2022/09/06 06:18:17;;;;;;;;;;;18.30;98.50;;;;;;5034492;28;20323;-54
2022/09/06 06:20:42;;;;;;;;;;;18.30;98.80;;;;;;5032768;28;19928;-54
2022/09/06 06:23:07;;;;;;;;;;;18.20;99.10;;;;;;5033109;28;19952;-59
2022/09/06 06:25:33;;;;;;;;;;;18.20;99.20;;;;;;5033931;28;19917;-57
2022/09/06 06:27:58;;;;;;;;;;;18.10;99.20;;;;;;5042976;28;19943;-54
2022/09/06 06:30:24;;;;;;;;;;;18.20;99.50;;;;;;5047502;28;20280;-57
2022/09/06 06:32:49;;;;;;;;;;;18.20;99.70;;;;;;5049343;28;19970;-55
2022/09/06 06:35:15;;;;;;;;;;;18.20;99.70;;;;;;5048158;28;19985;-56
2022/09/06 06:37:41;;;;;;;;;;;18.30;99.90;;;;;;5040062;28;19936;-56
2022/09/06 06:40:07;;;;;;;;;;;18.30;99.90;;;;;;5032615;28;20419;-57
2022/09/06 06:42:32;;;;;;;;;;;18.30;99.90;;;;;;5038534;28;20449;-56
2022/09/06 06:44:58;;;;;;;;;;;18.40;99.90;;;;;;5050182;28;19920;-55
2022/09/06 06:47:23;;;;;;;;;;;18.40;99.90;;;;;;5052010;28;20375;-56
2022/09/06 06:49:49;;;;;;;;;;;18.40;99.90;;;;;;5037982;28;19917;-54
2022/09/06 06:52:14;;;;;;;;;;;18.50;99.90;;;;;;5049322;28;20379;-54
2022/09/06 06:54:40;;;;;;;;;;;18.50;99.90;;;;;;5051758;28;20334;-57
2022/09/06 06:57:08;;;;;;;;;;;18.50;99.90;;;;;;5051538;28;19921;-55
2022/09/06 06:59:34;;;;;;;;;;;18.60;99.90;;;;;;5051108;28;19976;-57
2022/09/06 07:01:59;;;;;;;;;;;18.60;99.90;;;;;;5051779;28;19996;-58
2022/09/06 07:04:25;;;;;;;;;;;18.60;99.90;;;;;;5035309;28;19979;-54
2022/09/06 07:06:52;;;;;;;;;;;18.60;99.90;;;;;;5032249;28;19928;-58
2022/09/06 07:09:18;;;;;;;;;;;18.60;99.90;;;;;;5032228;28;19921;-55
2022/09/06 07:11:43;;;;;;;;;;;18.70;99.90;;;;;;5029593;28;19964;-56
2022/09/06 07:14:09;;;;;;;;;;;18.70;99.90;;;;;;5031952;28;19983;-57
2022/09/06 07:16:34;;;;;;;;;;;18.70;99.90;;;;;;5036490;28;19923;-57
2022/09/06 07:19:00;;;;;;;;;;;18.80;99.90;;;;;;5027810;28;19951;-56
2022/09/06 07:21:25;;;;;;;;;;;18.80;99.90;;;;;;5032474;28;19921;-57
2022/09/06 07:23:54;;;;;;;;;;;18.80;99.90;;;;;;5028750;28;19917;-55
2022/09/06 07:26:22;;;;;;;;;;;18.80;99.90;;;;;;5034523;28;19960;-55
2022/09/06 07:28:50;;;;;;;;;;;18.80;99.90;;;;;;5032437;28;19924;-58
2022/09/06 07:31:15;;;;;;;;;;;18.80;99.90;;;;;;5040877;28;19916;-57
2022/09/06 07:33:41;;;;;;;;;;;18.90;99.90;;;;;;5037342;28;19917;-57
2022/09/06 07:36:07;;;;;;;;;;;18.90;99.90;;;;;;5043151;28;19917;-54
2022/09/06 07:38:33;;;;;;;;;;;18.90;99.90;;;;;;5033852;28;20062;-53
2022/09/06 07:41:00;;;;;;;;;;;18.90;99.90;;;;;;5040332;28;19927;-59
2022/09/06 07:43:26;;;;;;;;;;;18.90;99.90;;;;;;5039102;28;19917;-57
2022/09/06 07:46:04;;;;;;;;;;;18.90;99.90;;;;;;5039971;28;19924;-58
2022/09/06 07:48:30;;;;;;;;;;;18.90;99.90;;;;;;5031499;28;19950;-55
2022/09/06 07:51:10;;;;;;;;;;;19.00;99.90;;;;;;5029157;28;19955;-56
2022/09/06 07:53:36;;;;;;;;;;;19.00;99.90;;;;;;5032485;28;20018;-56
2022/09/06 07:56:02;;;;;;;;;;;19.20;99.90;;;;;;5042770;28;20003;-54
2022/09/06 07:58:28;;;;;;;;;;;19.30;99.90;;;;;;5027891;28;19951;-56
2022/09/06 08:01:12;;;;;;;;;;;19.40;99.90;;;;;;5026064;28;20013;-56
2022/09/06 08:03:38;;;;;;;;;;;19.60;99.90;;;;;;5036826;28;20000;-54
2022/09/06 08:06:03;;;;;;;;;;;19.70;99.90;;;;;;5036287;28;20316;-57
2022/09/06 08:08:29;;;;;;;;;;;19.80;99.90;;;;;;5041589;28;19929;-58
2022/09/06 08:10:55;;;;;;;;;;;19.90;99.90;;;;;;5032074;28;19928;-54
2022/09/06 08:13:21;;;;;;;;;;;20.00;99.90;;;;;;5039358;28;20379;-54
2022/09/06 08:15:46;;;;;;;;;;;20.10;99.90;;;;;;5044447;28;19924;-55
2022/09/06 08:18:12;;;;;;;;;;;20.30;99.90;;;;;;5036789;28;20613;-54
2022/09/06 08:20:37;;;;;;;;;;;20.40;99.90;;;;;;5028495;28;19940;-57
2022/09/06 08:23:08;;;;;;;;;;;20.60;99.90;;;;;;5033472;28;20062;-57
2022/09/06 08:25:33;;;;;;;;;;;20.70;99.90;;;;;;5030197;28;19924;-55
2022/09/06 08:27:59;;;;;;;;;;;20.80;99.90;;;;;;5033039;28;20047;-58
2022/09/06 08:30:26;;;;;;;;;;;20.90;99.90;;;;;;5039063;28;19921;-55
2022/09/06 08:32:51;;;;;;;;;;;21.00;99.90;;;;;;5031143;28;19970;-58
2022/09/06 08:35:17;;;;;;;;;;;21.00;99.90;;;;;;5042074;28;19933;-55
2022/09/06 08:37:42;;;;;;;;;;;21.00;99.90;;;;;;5042990;28;20302;-56
2022/09/06 08:40:08;;;;;;;;;;;21.20;99.90;;;;;;5042792;28;19917;-55
2022/09/06 08:42:38;;;;;;;;;;;21.30;99.90;;;;;;5042973;28;19927;-55
2022/09/06 08:45:08;;;;;;;;;;;21.50;99.90;;;;;;5031846;28;19986;-58
2022/09/06 08:47:33;;;;;;;;;;;21.70;99.90;;;;;;5029221;28;20003;-57
2022/09/06 08:50:04;;;;;;;;;;;21.90;99.90;;;;;;5033505;28;20478;-57
2022/09/06 08:52:33;;;;;;;;;;;22.10;99.90;;;;;;5037011;28;20004;-57
2022/09/06 08:55:16;;;;;;;;;;;22.20;99.90;;;;;;5029390;28;19925;-57
2022/09/06 08:58:01;;;;;;;;;;;22.40;99.90;;;;;;5029477;28;19921;-57
2022/09/06 09:00:26;;;;;;;;;;;22.60;99.30;;;;;;5039219;28;19920;-55
2022/09/06 09:02:55;;;;;;;;;;;22.80;98.40;;;;;;5027940;28;20244;-55
2022/09/06 09:05:24;;;;;;;;;;;22.80;98.60;;;;;;5035224;28;19917;-56
2022/09/06 09:07:56;;;;;;;;;;;23.00;97.60;;;;;;5028590;28;20211;-55
2022/09/06 09:10:29;;;;;;;;;;;23.10;96.80;;;;;;5033722;28;19972;-56
2022/09/06 09:12:55;;;;;;;;;;;23.20;97.20;;;;;;5033045;28;19970;-55
2022/09/06 09:15:21;;;;;;;;;;;23.30;96.10;;;;;;5039528;28;19952;-57
2022/09/06 09:17:48;;;;;;;;;;;23.40;95.20;;;;;;5028219;28;19925;-56
2022/09/06 09:20:13;;;;;;;;;;;23.40;95.10;;;;;;5041913;28;20016;-55
2022/09/06 09:22:39;;;;;;;;;;;23.50;94.90;;;;;;5028819;28;20011;-56
2022/09/06 09:25:06;;;;;;;;;;;23.60;95.40;;;;;;5028029;28;19920;-57
2022/09/06 09:27:32;;;;;;;;;;;23.70;94.90;;;;;;5032689;28;19928;-57
2022/09/06 09:30:00;;;;;;;;;;;23.70;94.10;;;;;;5029346;28;20365;-57
2022/09/06 09:32:35;;;;;;;;;;;23.70;93.90;;;;;;5033514;28;20299;-57
2022/09/06 09:35:19;;;;;;;;;;;23.80;93.60;;;;;;5030296;28;20430;-57
2022/09/06 09:37:44;;;;;;;;;;;23.90;93.90;;;;;;5039282;28;20314;-55
2022/09/06 09:40:25;;;;;;;;;;;24.00;94.20;;;;;;5032133;28;20020;-55
2022/09/06 09:42:52;;;;;;;;;;;24.10;94.30;;;;;;5032224;28;19917;-55
2022/09/06 09:45:25;;;;;;;;;;;24.20;93.80;;;;;;5029224;28;19929;-53
2022/09/06 09:47:51;;;;;;;;;;;24.20;93.90;;;;;;5032461;28;19917;-54
2022/09/06 09:50:35;;;;;;;;;;;24.30;92.90;;;;;;5041587;28;19916;-55
2022/09/06 09:53:10;;;;;;;;;;;24.30;92.80;;;;;;5068517;28;19923;-56
2022/09/06 09:55:36;;;;;;;;;;;24.30;92.60;;;;;;5044212;28;19932;-54
2022/09/06 09:58:02;;;;;;;;;;;24.30;92.40;;;;;;5036518;28;20560;-53
2022/09/06 10:00:42;;;;;;;;;;;24.50;92.40;;;;;;5040829;28;19920;-55
2022/09/06 10:03:18;;;;;;;;;;;24.50;92.20;;;;;;5046446;28;19935;-52
2022/09/06 10:05:54;;;;;;;;;;;24.60;92.00;;;;;;5042672;28;19939;-53
2022/09/06 10:08:22;;;;;;;;;;;24.70;92.00;;;;;;5045952;28;19917;-54
2022/09/06 10:10:47;;;;;;;;;;;24.70;91.60;;;;;;5048698;28;20374;-55
2022/09/06 10:13:18;;;;;;;;;;;24.90;91.80;;;;;;5047392;28;19971;-55
2022/09/06 10:15:44;;;;;;;;;;;24.90;91.40;;;;;;5047104;28;20314;-56
2022/09/06 10:18:33;;;;;;;;;;;25.00;91.00;;;;;;5037907;28;20031;-54
2022/09/06 10:21:06;;;;;;;;;;;25.10;91.60;;;;;;5030569;28;20468;-54
2022/09/06 10:23:47;;;;;;;;;;;25.10;91.10;;;;;;5039524;28;20008;-55
2022/09/06 10:26:15;;;;;;;;;;;25.10;90.90;;;;;;5028030;28;20327;-55
2022/09/06 10:28:41;;;;;;;;;;;25.20;91.20;;;;;;5029260;28;19971;-55
2022/09/06 10:31:25;;;;;;;;;;;25.20;90.40;;;;;;5028280;28;19964;-53
2022/09/06 10:33:54;;;;;;;;;;;25.40;89.90;;;;;;5036882;28;19916;-55
2022/09/06 10:36:27;;;;;;;;;;;25.50;90.50;;;;;;5046279;28;19967;-52
2022/09/06 10:38:55;;;;;;;;;;;25.50;89.60;;;;;;5038982;28;20136;-53
2022/09/06 10:41:28;;;;;;;;;;;25.60;90.00;;;;;;5046769;28;20016;-55
2022/09/06 10:43:56;;;;;;;;;;;25.60;90.00;;;;;;5047723;28;19930;-52
2022/09/06 10:46:24;;;;;;;;;;;25.70;90.10;;;;;;5044991;28;19917;-54
2022/09/06 10:48:51;;;;;;;;;;;25.70;87.40;;;;;;5045692;28;19995;-55
2022/09/06 10:51:27;;;;;;;;;;;25.80;88.50;;;;;;5033137;28;19932;-56
2022/09/06 10:54:00;;;;;;;;;;;25.80;88.30;;;;;;5028331;28;19917;-54
2022/09/06 10:56:36;;;;;;;;;;;25.90;88.60;;;;;;5029204;28;19917;-55
2022/09/06 10:59:06;;;;;;;;;;;26.00;88.20;;;;;;5028193;28;19971;-53
2022/09/06 11:01:40;;;;;;;;;;;26.10;87.00;;;;;;5036811;28;19916;-52
2022/09/06 11:04:13;;;;;;;;;;;26.10;86.60;;;;;;5028656;28;19917;-52
2022/09/06 11:06:49;;;;;;;;;;;26.10;86.50;;;;;;5046734;28;19920;-54
2022/09/06 11:09:37;;;;;;;;;;;26.20;87.10;;;;;;5056690;28;19917;-54
2022/09/06 11:12:06;;;;;;;;;;;26.30;87.20;;;;;;5027869;28;19916;-52
2022/09/06 11:14:33;;;;;;;;;;;26.30;85.30;;;;;;5026469;28;19924;-54
2022/09/06 11:17:03;;;;;;;;;;;26.30;85.50;;;;;;5028458;28;19968;-55
2022/09/06 11:19:38;;;;;;;;;;;26.40;85.70;;;;;;5036951;28;20382;-52
2022/09/06 11:22:22;;;;;;;;;;;26.40;85.00;;;;;;5029221;28;20216;-52
2022/09/06 11:25:10;;;;;;;;;;;26.50;84.50;;;;;;5027209;28;19921;-52
2022/09/06 11:27:40;;;;;;;;;;;26.60;85.50;;;;;;5027374;28;19916;-54
2022/09/06 11:30:06;;;;;;;;;;;26.70;84.30;;;;;;5028267;28;19918;-55
2022/09/06 11:32:36;;;;;;;;;;;26.70;82.10;;;;;;5047009;28;20397;-55
2022/09/06 11:35:06;;;;;;;;;;;26.80;81.30;;;;;;5047021;28;20295;-54
2022/09/06 11:37:31;;;;;;;;;;;26.80;82.40;;;;;;5047357;28;19975;-55
2022/09/06 11:40:03;;;;;;;;;;;26.90;82.40;;;;;;5043746;28;20358;-54
2022/09/06 11:42:41;;;;;;;;;;;26.90;81.60;;;;;;5046234;28;19917;-54
2022/09/06 11:45:06;;;;;;;;;;;27.00;82.10;;;;;;5032603;28;20397;-52
2022/09/06 11:47:39;;;;;;;;;;;27.10;80.70;;;;;;5026651;28;19936;-55
2022/09/06 11:50:20;;;;;;;;;;;27.10;80.80;;;;;;5028407;28;20372;-55
2022/09/06 11:52:54;;;;;;;;;;;27.20;80.60;;;;;;5026590;28;19956;-55
2022/09/06 11:55:49;;;;;;;;;;;27.20;79.50;;;;;;5037697;28;20010;-55
2022/09/06 11:58:15;;;;;;;;;;;27.30;79.40;;;;;;5023830;28;19925;-53
2022/09/06 12:00:40;;;;;;;;;;;27.30;79.10;;;;;;5023284;28;19917;-53
2022/09/06 12:03:07;;;;;;;;;;;27.30;78.60;;;;;;5023059;28;19925;-55
2022/09/06 12:05:53;;;;;;;;;;;27.30;78.40;;;;;;4999856;28;19924;-54
2022/09/06 12:08:21;;;;;;;;;;;27.30;78.00;;;;;;5023624;28;19952;-53
2022/09/06 12:10:54;;;;;;;;;;;27.40;77.60;;;;;;5023216;28;19916;-50
2022/09/06 12:13:38;;;;;;;;;;;27.40;76.40;;;;;;5007397;28;20450;-52
2022/09/06 12:16:04;;;;;;;;;;;27.40;76.40;;;;;;5008162;28;19917;-54
2022/09/06 12:18:49;;;;;;;;;;;27.40;75.10;;;;;;5004134;28;20277;-53
2022/09/06 12:21:33;;;;;;;;;;;27.50;74.90;;;;;;5016780;28;19924;-54
2022/09/06 12:23:59;;;;;;;;;;;27.60;74.10;;;;;;5022727;28;19921;-53
2022/09/06 12:26:45;;;;;;;;;;;27.70;74.10;;;;;;5014597;28;19919;-54
2022/09/06 12:29:11;;;;;;;;;;;27.70;74.30;;;;;;5004515;28;19933;-55
2022/09/06 12:31:38;;;;;;;;;;;27.70;73.30;;;;;;5006470;28;20055;-54
2022/09/06 12:34:10;;;;;;;;;;;27.60;72.80;;;;;;4994592;28;19916;-56
2022/09/06 12:36:45;;;;;;;;;;;27.60;72.60;;;;;;5035643;28;20356;-53
2022/09/06 12:39:11;;;;;;;;;;;27.70;73.50;;;;;;5043467;28;19978;-56
2022/09/06 12:41:37;;;;;;;;;;;27.70;72.70;;;;;;5040790;28;20015;-56
2022/09/06 12:44:04;;;;;;;;;;;27.70;73.50;;;;;;5029870;28;19916;-56
2022/09/06 12:46:31;;;;;;;;;;;27.80;72.80;;;;;;5036895;28;19989;-56
2022/09/06 12:49:00;;;;;;;;;;;27.90;71.90;;;;;;5037872;28;19974;-52
2022/09/06 12:51:25;;;;;;;;;;;28.00;71.60;;;;;;5039055;28;19916;-55
2022/09/06 12:53:59;;;;;;;;;;;28.00;71.20;;;;;;5045294;28;19928;-56
2022/09/06 12:56:25;;;;;;;;;;;28.10;70.80;;;;;;5045958;28;20082;-52
2022/09/06 12:58:51;;;;;;;;;;;28.10;71.70;;;;;;5039024;28;19982;-55
2022/09/06 13:01:21;;;;;;;;;;;28.20;70.30;;;;;;5042707;28;19959;-56
2022/09/06 13:03:54;;;;;;;;;;;28.20;70.80;;;;;;5042963;28;20444;-56
2022/09/06 13:06:21;;;;;;;;;;;28.40;70.80;;;;;;5033708;28;19952;-54
2022/09/06 13:08:51;;;;;;;;;;;28.40;69.40;;;;;;5045796;28;19916;-56
2022/09/06 13:11:22;;;;;;;;;;;28.50;68.80;;;;;;5041510;28;20295;-55
2022/09/06 13:13:49;;;;;;;;;;;28.40;68.40;;;;;;5047284;28;20088;-56
2022/09/06 13:16:35;;;;;;;;;;;28.40;68.60;;;;;;5045310;28;20209;-55
2022/09/06 13:19:14;;;;;;;;;;;28.40;69.10;;;;;;5047309;28;19921;-55
2022/09/06 13:21:41;;;;;;;;;;;28.30;69.30;;;;;;5036004;28;20280;-54
2022/09/06 13:24:21;;;;;;;;;;;28.40;68.80;;;;;;5045158;28;20125;-55
2022/09/06 13:26:48;;;;;;;;;;;28.50;68.70;;;;;;5048364;28;19917;-55
2022/09/06 13:29:16;;;;;;;;;;;28.50;67.80;;;;;;5045664;28;20338;-55
2022/09/06 13:32:00;;;;;;;;;;;28.50;68.60;;;;;;5046685;28;19917;-55
2022/09/06 13:34:26;;;;;;;;;;;28.40;67.70;;;;;;5033889;28;19936;-53
2022/09/06 13:36:53;;;;;;;;;;;28.40;68.30;;;;;;5044524;28;19916;-56
2022/09/06 13:39:32;;;;;;;;;;;28.40;69.20;;;;;;5046235;28;20011;-55
2022/09/06 13:42:02;;;;;;;;;;;28.40;67.10;;;;;;5048570;28;20441;-53
2022/09/06 13:44:29;;;;;;;;;;;28.50;66.00;;;;;;5042681;28;20161;-54
2022/09/06 13:46:54;;;;;;;;;;;28.50;67.10;;;;;;5042128;28;19924;-55
2022/09/06 13:49:22;;;;;;;;;;;28.50;66.80;;;;;;5045365;28;19917;-55
2022/09/06 13:51:48;;;;;;;;;;;28.40;66.70;;;;;;5043850;28;19931;-56
2022/09/06 13:54:14;;;;;;;;;;;28.30;66.40;;;;;;5047902;28;20011;-55
2022/09/06 13:56:41;;;;;;;;;;;28.20;66.80;;;;;;5044014;28;20283;-55
2022/09/06 13:59:09;;;;;;;;;;;28.20;66.30;;;;;;5034205;28;20394;-55
2022/09/06 14:01:35;;;;;;;;;;;28.10;67.30;;;;;;5042388;28;19930;-52
2022/09/06 14:04:00;;;;;;;;;;;28.10;66.40;;;;;;5042683;28;20008;-55
2022/09/06 14:06:26;;;;;;;;;;;28.00;67.00;;;;;;5039425;28;19916;-50
2022/09/06 14:08:52;;;;;;;;;;;28.10;67.60;;;;;;5045486;28;19917;-57
2022/09/06 14:11:17;;;;;;;;;;;28.20;66.90;;;;;;5038408;28;19920;-57
2022/09/06 14:13:43;;;;;;;;;;;28.30;66.30;;;;;;5045525;28;20081;-58
2022/09/06 14:16:08;;;;;;;;;;;28.40;66.80;;;;;;5036603;28;20318;-57
2022/09/06 14:18:35;;;;;;;;;;;28.50;66.90;;;;;;5046558;28;19931;-58
2022/09/06 14:21:00;;;;;;;;;;;28.60;65.70;;;;;;5041663;28;19928;-58
2022/09/06 14:23:26;;;;;;;;;;;28.60;65.60;;;;;;5041737;28;20305;-57
2022/09/06 14:25:55;;;;;;;;;;;28.70;65.10;;;;;;5038656;28;19922;-58
2022/09/06 14:28:21;;;;;;;;;;;28.70;65.20;;;;;;5046552;28;20046;-55
2022/09/06 14:30:46;;;;;;;;;;;28.80;66.10;;;;;;5041924;28;20012;-58
2022/09/06 14:33:12;;;;;;;;;;;28.80;66.00;;;;;;5044432;28;19935;-57
2022/09/06 14:35:40;;;;;;;;;;;28.80;65.70;;;;;;5043097;28;19925;-57
2022/09/06 14:38:06;;;;;;;;;;;28.80;65.60;;;;;;5032731;28;19929;-56